Time;durP1;ratioP1;P1;durP2;ratioP2;P2;SDS_P1;SDS_P2;PMS_P1;PMS_P2;Temp;Humidity;BMP_temperature;BMP_pressure;BME280_temperature;BME280_humidity;BME280_pressure;Samples;Min_cycle;Max_cycle;Signal;HPM_P1;HPM_P2
2022/01/15 00:01:50;;;;;;;13.18;4.20;;;3.10;66.60;;;;;;5057682;28;20025;-33
2022/01/15 00:04:16;;;;;;;20.52;7.28;;;3.00;66.60;;;;;;5057892;28;20033;-45
2022/01/15 00:06:42;;;;;;;7.97;2.83;;;3.00;66.40;;;;;;5057668;28;20021;-34
2022/01/15 00:09:07;;;;;;;8.07;2.90;;;3.00;66.70;;;;;;5058030;28;20025;-45
2022/01/15 00:11:34;;;;;;;4.20;1.88;;;2.90;65.80;;;;;;5057690;28;20043;-46
2022/01/15 00:14:13;;;;;;;7.10;3.08;;;2.90;66.10;;;;;;5057988;28;20029;-35
2022/01/15 00:16:47;;;;;;;3.03;1.10;;;2.90;65.80;;;;;;5057653;28;20365;-38
2022/01/15 00:19:16;;;;;;;3.15;1.20;;;2.90;65.70;;;;;;5057369;28;20029;-45
2022/01/15 00:21:42;;;;;;;3.17;1.70;;;2.90;65.80;;;;;;5057584;28;20036;-45
2022/01/15 00:24:08;;;;;;;6.05;1.98;;;2.90;65.70;;;;;;5057497;28;20025;-34
2022/01/15 00:26:34;;;;;;;5.10;2.28;;;2.90;65.10;;;;;;5057148;28;20036;-45
2022/01/15 00:29:00;;;;;;;8.98;2.80;;;2.90;65.10;;;;;;5057302;28;20025;-45
2022/01/15 00:31:26;;;;;;;6.20;2.80;;;3.00;64.90;;;;;;5056932;28;20021;-45
2022/01/15 00:33:52;;;;;;;3.45;1.20;;;3.00;64.90;;;;;;5057258;28;20357;-34
2022/01/15 00:36:18;;;;;;;4.85;1.67;;;3.00;64.50;;;;;;5056149;28;20033;-45
2022/01/15 00:38:44;;;;;;;4.88;1.63;;;3.00;64.60;;;;;;5057384;28;20056;-36
2022/01/15 00:41:10;;;;;;;2.30;1.08;;;3.00;64.70;;;;;;5056993;28;20029;-46
2022/01/15 00:43:36;;;;;;;4.50;1.40;;;3.00;64.70;;;;;;5057318;28;20056;-33
2022/01/15 00:46:01;;;;;;;6.03;2.00;;;3.00;64.70;;;;;;5056737;28;20321;-34
2022/01/15 00:48:27;;;;;;;4.70;1.38;;;3.00;65.10;;;;;;5057016;28;20036;-45
2022/01/15 00:50:53;;;;;;;2.60;0.93;;;3.00;65.50;;;;;;5056885;28;20041;-33
2022/01/15 00:53:19;;;;;;;4.43;1.58;;;2.90;65.60;;;;;;5056661;28;20025;-36
2022/01/15 00:55:46;;;;;;;2.08;1.30;;;2.90;65.90;;;;;;5056573;28;20078;-45
2022/01/15 00:58:12;;;;;;;3.58;1.23;;;2.90;66.20;;;;;;5056832;28;20410;-35
2022/01/15 01:00:38;;;;;;;5.97;1.90;;;2.80;66.70;;;;;;5056617;28;20033;-34
2022/01/15 01:03:04;;;;;;;4.30;1.65;;;2.70;66.90;;;;;;5056638;28;20017;-37
2022/01/15 01:05:30;;;;;;;4.05;1.33;;;2.70;67.40;;;;;;5056316;28;20029;-45
2022/01/15 01:07:56;;;;;;;5.20;2.53;;;2.60;67.80;;;;;;5056550;28;20095;-45
2022/01/15 01:23:31;;;;;;;3.15;1.48;;;2.50;69.70;;;;;;5056640;28;20036;-33
2022/01/15 01:26:08;;;;;;;3.50;1.60;;;2.50;70.00;;;;;;5055952;28;20037;-45
2022/01/15 01:28:40;;;;;;;2.90;1.42;;;2.40;70.50;;;;;;5056538;28;20063;-44
2022/01/15 01:33:38;;;;;;;5.03;1.48;;;2.40;71.30;;;;;;5056066;28;20059;-45
2022/01/15 01:38:35;;;;;;;5.80;1.50;;;2.30;71.60;;;;;;5056456;28;20029;-44
2022/01/15 01:41:04;;;;;;;10.80;1.60;;;2.20;71.50;;;;;;5055622;28;20480;-35
2022/01/15 01:48:49;;;;;;;5.80;1.35;;;2.20;71.30;;;;;;5055678;28;20444;-44
2022/01/15 01:51:34;;;;;;;4.07;1.27;;;2.20;71.20;;;;;;5055887;28;20116;-33
2022/01/15 01:54:06;;;;;;;2.72;1.17;;;2.10;70.90;;;;;;5056146;28;20079;-34
2022/01/15 01:56:32;;;;;;;6.53;1.30;;;2.10;70.80;;;;;;5055542;28;20044;-34
2022/01/15 01:58:58;;;;;;;4.10;1.40;;;2.10;70.20;;;;;;5056115;28;20095;-45
2022/01/15 02:01:25;;;;;;;6.13;1.38;;;2.10;70.10;;;;;;5055385;28;20052;-33
2022/01/15 02:03:51;;;;;;;5.93;1.10;;;2.10;70.80;;;;;;5055988;28;20025;-46
2022/01/15 02:06:18;;;;;;;2.97;1.45;;;2.10;70.40;;;;;;5054403;28;20114;-36
2022/01/15 02:08:44;;;;;;;7.85;1.35;;;2.10;70.80;;;;;;5055850;28;20029;-34
2022/01/15 02:11:11;;;;;;;2.78;1.17;;;2.10;71.00;;;;;;5055743;28;20489;-39
2022/01/15 02:13:43;;;;;;;6.88;1.92;;;2.10;71.40;;;;;;5055745;28;20029;-46
2022/01/15 02:16:10;;;;;;;3.92;1.60;;;2.10;71.90;;;;;;5055759;28;20433;-36
2022/01/15 02:18:36;;;;;;;8.80;1.52;;;2.10;72.20;;;;;;5055737;28;20040;-47
2022/01/15 02:23:50;;;;;;;3.63;1.20;;;2.10;72.60;;;;;;5055904;28;20040;-45
2022/01/15 02:26:19;;;;;;;5.50;1.35;;;2.10;72.60;;;;;;5055615;28;20029;-44
2022/01/15 02:28:51;;;;;;;6.47;1.40;;;2.10;72.80;;;;;;5055953;28;20330;-46
2022/01/15 02:31:18;;;;;;;4.65;1.50;;;2.10;72.80;;;;;;5055256;28;20065;-46
2022/01/15 02:33:46;;;;;;;4.63;1.50;;;2.20;72.90;;;;;;5055604;28;20107;-37
2022/01/15 02:36:17;;;;;;;4.68;1.13;;;2.10;72.90;;;;;;5055721;28;20037;-35
2022/01/15 02:38:44;;;;;;;4.35;1.00;;;2.10;72.80;;;;;;5055679;28;20029;-46
2022/01/15 02:41:11;;;;;;;2.25;1.10;;;2.10;72.80;;;;;;5055091;28;20064;-37
2022/01/15 02:43:37;;;;;;;2.83;1.27;;;2.10;72.80;;;;;;5055926;28;20028;-43
2022/01/15 02:48:52;;;;;;;3.00;1.40;;;2.00;73.50;;;;;;5055566;28;20097;-33
2022/01/15 02:51:20;;;;;;;1.85;1.20;;;2.00;73.00;;;;;;5055731;28;20035;-43
2022/01/15 02:53:47;;;;;;;1.92;1.05;;;2.00;73.10;;;;;;5055527;28;20103;-44
2022/01/15 02:56:13;;;;;;;4.00;1.20;;;2.00;73.00;;;;;;5055304;28;20033;-43
2022/01/15 02:58:39;;;;;;;2.92;1.13;;;2.00;72.90;;;;;;5055445;28;20475;-33
2022/01/15 03:01:06;;;;;;;3.80;1.27;;;2.00;72.80;;;;;;5058075;28;20240;-43
2022/01/15 03:03:33;;;;;;;7.43;1.33;;;2.00;72.60;;;;;;5059189;28;20033;-33
2022/01/15 03:05:58;;;;;;;12.90;1.67;;;2.00;72.50;;;;;;5058594;28;20033;-44
2022/01/15 03:08:24;;;;;;;4.50;1.63;;;2.00;72.30;;;;;;5059030;28;20044;-43
2022/01/15 03:10:50;;;;;;;3.58;1.60;;;2.00;72.20;;;;;;5058732;28;20032;-33
2022/01/15 03:13:16;;;;;;;2.85;1.27;;;2.00;71.90;;;;;;5058474;28;20410;-44
2022/01/15 03:15:42;;;;;;;9.20;1.45;;;2.00;71.70;;;;;;5058773;28;20029;-32
2022/01/15 03:18:08;;;;;;;7.10;1.65;;;2.00;71.50;;;;;;5058790;28;20033;-44
2022/01/15 03:20:34;;;;;;;4.95;1.50;;;2.00;71.10;;;;;;5058566;28;20029;-32
2022/01/15 03:23:00;;;;;;;5.75;1.58;;;2.00;70.50;;;;;;5058634;28;20437;-32
2022/01/15 03:25:26;;;;;;;2.83;1.10;;;2.00;70.00;;;;;;5058754;28;20029;-44
2022/01/15 03:27:51;;;;;;;4.55;1.45;;;2.00;69.60;;;;;;5058782;28;20472;-32
2022/01/15 03:30:17;;;;;;;5.20;1.48;;;2.00;69.20;;;;;;5058615;28;20083;-43
2022/01/15 03:32:43;;;;;;;9.13;1.60;;;2.10;69.40;;;;;;5058257;28;20079;-32
2022/01/15 03:35:14;;;;;;;4.32;0.88;;;2.10;69.00;;;;;;5058292;28;20333;-32
2022/01/15 03:37:41;;;;;;;6.93;1.55;;;2.10;68.90;;;;;;5058644;28;20111;-44
2022/01/15 03:40:09;;;;;;;2.55;1.00;;;2.10;68.90;;;;;;5058275;28;20029;-32
2022/01/15 03:42:34;;;;;;;2.83;1.20;;;2.20;68.90;;;;;;5058132;28;20025;-44
2022/01/15 03:45:00;;;;;;;4.53;1.45;;;2.20;68.30;;;;;;5058209;28;20025;-46
2022/01/15 03:47:26;;;;;;;4.18;1.30;;;2.20;68.60;;;;;;5058346;28;20025;-46
2022/01/15 03:49:52;;;;;;;1.83;1.25;;;2.30;68.80;;;;;;5057963;28;20057;-35
2022/01/15 03:52:18;;;;;;;2.20;0.90;;;2.30;68.90;;;;;;5058216;28;20396;-46
2022/01/15 03:54:45;;;;;;;5.00;1.75;;;2.30;69.20;;;;;;5057880;28;20033;-44
2022/01/15 03:57:11;;;;;;;5.60;1.98;;;2.30;69.30;;;;;;5057755;28;20065;-40
2022/01/15 03:59:37;;;;;;;3.10;1.27;;;2.40;69.50;;;;;;5057940;28;20071;-43
2022/01/15 04:02:03;;;;;;;3.95;1.67;;;2.30;69.60;;;;;;5057806;28;20425;-46
2022/01/15 04:04:28;;;;;;;3.60;1.42;;;2.30;69.70;;;;;;5057750;28;20035;-34
2022/01/15 04:06:54;;;;;;;4.75;1.70;;;2.40;69.90;;;;;;5057846;28;20033;-34
2022/01/15 04:09:20;;;;;;;5.05;1.38;;;2.40;70.10;;;;;;5057554;28;20301;-46
2022/01/15 04:11:46;;;;;;;4.95;1.55;;;2.40;70.20;;;;;;5057468;28;20036;-46
2022/01/15 04:14:12;;;;;;;4.57;1.52;;;2.40;70.40;;;;;;5057498;28;20040;-45
2022/01/15 04:16:38;;;;;;;7.20;1.88;;;2.40;70.50;;;;;;5057560;28;20432;-45
2022/01/15 04:19:06;;;;;;;3.45;1.65;;;2.30;70.60;;;;;;5023470;28;20067;-46
2022/01/15 04:21:33;;;;;;;3.70;1.15;;;2.30;70.50;;;;;;5057308;28;20101;-36
2022/01/15 04:23:59;;;;;;;5.07;1.38;;;2.30;70.40;;;;;;5056374;28;20017;-37
2022/01/15 04:26:26;;;;;;;3.63;1.48;;;2.30;70.30;;;;;;5057213;28;20467;-34
2022/01/15 04:28:53;;;;;;;2.15;1.20;;;2.30;70.40;;;;;;5057518;28;20027;-45
2022/01/15 04:31:19;;;;;;;7.60;1.42;;;2.30;70.30;;;;;;5056806;28;20095;-46
2022/01/15 04:33:45;;;;;;;4.63;1.30;;;2.30;70.40;;;;;;5057523;28;20376;-35
2022/01/15 04:36:11;;;;;;;4.57;1.50;;;2.30;70.50;;;;;;5057077;28;20044;-39
2022/01/15 04:38:38;;;;;;;4.30;1.40;;;2.30;70.50;;;;;;5057266;28;20448;-34
2022/01/15 04:41:08;;;;;;;5.43;1.52;;;2.30;70.50;;;;;;5056679;28;20033;-34
2022/01/15 04:43:34;;;;;;;9.27;1.65;;;2.30;70.40;;;;;;5057263;28;20308;-46
2022/01/15 04:46:00;;;;;;;5.30;1.90;;;2.30;70.90;;;;;;5056644;28;20093;-45
2022/01/15 04:48:26;;;;;;;7.50;1.35;;;2.30;70.30;;;;;;5056710;28;20025;-34
2022/01/15 04:50:52;;;;;;;6.90;1.52;;;2.30;70.40;;;;;;5055443;28;20114;-34
2022/01/15 04:53:18;;;;;;;4.53;1.55;;;2.30;70.40;;;;;;5057017;28;20020;-34
2022/01/15 04:55:44;;;;;;;8.98;1.70;;;2.30;70.30;;;;;;5056624;28;20029;-34
2022/01/15 04:58:10;;;;;;;4.60;1.60;;;2.20;70.60;;;;;;5056757;28;20028;-34
2022/01/15 05:00:36;;;;;;;5.63;1.45;;;2.20;70.70;;;;;;5056611;28;20425;-45
2022/01/15 05:03:03;;;;;;;4.45;1.55;;;2.20;70.70;;;;;;5055661;28;20024;-34
2022/01/15 05:05:29;;;;;;;7.05;1.58;;;2.20;70.80;;;;;;5056916;28;20040;-46
2022/01/15 05:07:55;;;;;;;4.55;1.95;;;2.20;70.70;;;;;;5055504;28;20100;-34
2022/01/15 05:10:26;;;;;;;6.30;1.55;;;2.20;70.70;;;;;;5056536;28;20424;-46
2022/01/15 05:12:55;;;;;;;5.40;1.70;;;2.30;70.60;;;;;;5056713;28;20060;-32
2022/01/15 05:15:21;;;;;;;2.88;1.60;;;2.30;70.60;;;;;;5056705;28;20413;-32
2022/01/15 05:17:48;;;;;;;4.72;1.30;;;2.30;70.70;;;;;;5056427;28;20033;-33
2022/01/15 05:20:18;;;;;;;6.72;1.25;;;2.30;70.20;;;;;;5056278;28;20033;-33
2022/01/15 05:22:46;;;;;;;2.77;1.10;;;2.30;70.00;;;;;;5056264;28;20025;-32
2022/01/15 05:25:16;;;;;;;6.82;1.67;;;2.30;69.90;;;;;;5056397;28;20052;-44
2022/01/15 05:27:43;;;;;;;3.97;1.52;;;2.30;69.60;;;;;;5056599;28;20037;-37
2022/01/15 05:30:10;;;;;;;3.95;1.27;;;2.40;69.50;;;;;;5056148;28;20064;-32
2022/01/15 05:32:36;;;;;;;9.73;2.20;;;2.40;69.20;;;;;;5056129;28;20036;-43
2022/01/15 05:35:03;;;;;;;2.53;1.13;;;2.50;69.30;;;;;;5056214;28;20033;-44
2022/01/15 05:37:29;;;;;;;4.05;1.40;;;2.50;68.90;;;;;;5056152;28;20049;-44
2022/01/15 05:39:55;;;;;;;8.20;1.48;;;2.50;68.70;;;;;;5055965;28;20029;-44
2022/01/15 05:42:20;;;;;;;4.50;1.20;;;2.60;68.60;;;;;;5056289;28;20033;-44
2022/01/15 05:44:46;;;;;;;7.55;1.10;;;2.60;68.50;;;;;;5056089;28;20416;-32
2022/01/15 05:47:12;;;;;;;6.50;1.38;;;2.60;68.30;;;;;;5055913;28;20383;-37
2022/01/15 05:49:38;;;;;;;4.43;1.30;;;2.70;68.30;;;;;;5055449;28;20064;-44
2022/01/15 05:52:04;;;;;;;3.15;1.60;;;2.60;68.10;;;;;;5055898;28;20037;-44
2022/01/15 05:54:30;;;;;;;4.15;1.38;;;2.70;68.20;;;;;;5055961;28;20067;-44
2022/01/15 05:56:56;;;;;;;4.18;2.17;;;2.70;67.70;;;;;;5055597;28;20110;-44
2022/01/15 05:59:21;;;;;;;5.68;1.70;;;2.80;67.80;;;;;;5056017;28;20198;-33
2022/01/15 06:01:47;;;;;;;6.95;1.80;;;2.70;67.50;;;;;;5055695;28;20029;-44
2022/01/15 06:04:13;;;;;;;2.63;1.42;;;2.80;67.70;;;;;;5055736;28;20206;-33
2022/01/15 06:06:38;;;;;;;5.38;2.00;;;2.80;67.90;;;;;;5055556;28;20033;-44
2022/01/15 06:09:04;;;;;;;4.18;1.73;;;2.80;68.10;;;;;;5055900;28;20025;-33
2022/01/15 06:11:30;;;;;;;6.63;2.00;;;2.90;67.30;;;;;;5055330;28;20037;-36
2022/01/15 06:13:56;;;;;;;8.25;2.10;;;2.80;67.30;;;;;;5055889;28;20424;-44
2022/01/15 06:16:23;;;;;;;5.13;1.90;;;2.90;67.40;;;;;;5055792;28;20041;-32
2022/01/15 06:18:49;;;;;;;5.88;2.30;;;2.90;67.20;;;;;;5055751;28;20421;-39
2022/01/15 06:21:15;;;;;;;3.67;1.65;;;2.90;67.10;;;;;;5055471;28;20083;-31
2022/01/15 06:23:40;;;;;;;5.97;1.60;;;2.90;66.90;;;;;;5055516;28;20116;-44
2022/01/15 06:26:06;;;;;;;5.82;2.00;;;2.90;66.90;;;;;;5055210;28;20056;-44
2022/01/15 06:28:32;;;;;;;6.20;1.85;;;3.00;67.00;;;;;;5055706;28;20128;-44
2022/01/15 06:30:58;;;;;;;6.32;1.17;;;2.90;66.70;;;;;;5055274;28;20057;-44
2022/01/15 06:33:23;;;;;;;2.97;1.90;;;3.00;66.70;;;;;;5055368;28;20052;-33
2022/01/15 06:35:49;;;;;;;3.63;1.65;;;3.00;66.50;;;;;;5058285;28;20421;-44
2022/01/15 06:38:15;;;;;;;4.75;1.75;;;3.00;66.30;;;;;;5059099;28;20380;-45
2022/01/15 06:40:40;;;;;;;3.55;1.45;;;3.00;66.00;;;;;;5058648;28;20029;-44
2022/01/15 06:43:06;;;;;;;5.80;1.77;;;3.00;65.10;;;;;;5058873;28;20074;-44
2022/01/15 06:45:33;;;;;;;3.90;1.50;;;3.10;65.50;;;;;;5058913;28;20036;-33
2022/01/15 06:47:59;;;;;;;6.13;2.50;;;3.10;65.10;;;;;;5059341;28;20033;-36
2022/01/15 06:50:27;;;;;;;4.72;1.70;;;3.10;65.20;;;;;;5058394;28;20130;-44
2022/01/15 06:52:53;;;;;;;5.15;1.85;;;3.20;65.20;;;;;;5058867;28;20046;-34
2022/01/15 06:55:19;;;;;;;7.97;1.55;;;3.20;65.40;;;;;;5058956;28;20029;-44
2022/01/15 06:57:45;;;;;;;7.45;1.65;;;3.20;65.20;;;;;;5059101;28;20124;-35
2022/01/15 07:00:11;;;;;;;5.20;2.17;;;3.20;65.10;;;;;;5058668;28;20190;-34
2022/01/15 07:02:38;;;;;;;5.88;1.63;;;3.30;65.30;;;;;;5058780;28;20082;-32
2022/01/15 07:05:05;;;;;;;4.75;1.77;;;3.30;65.90;;;;;;5058858;28;20051;-43
2022/01/15 07:07:31;;;;;;;6.60;2.17;;;3.30;65.20;;;;;;5058535;28;20025;-32
2022/01/15 07:09:57;;;;;;;9.52;2.30;;;3.30;65.20;;;;;;5058473;28;20044;-33
2022/01/15 07:12:23;;;;;;;5.03;1.85;;;3.40;65.40;;;;;;5058696;28;20041;-33
2022/01/15 07:14:48;;;;;;;8.85;2.10;;;3.40;65.50;;;;;;5058472;28;20048;-44
2022/01/15 07:17:14;;;;;;;10.05;2.45;;;3.40;65.30;;;;;;5058330;28;20417;-44
2022/01/15 07:19:40;;;;;;;4.25;1.88;;;3.40;65.50;;;;;;5058130;28;20025;-32
2022/01/15 07:22:06;;;;;;;5.70;2.42;;;3.40;65.20;;;;;;5054740;28;20061;-32
2022/01/15 07:24:32;;;;;;;5.43;2.10;;;3.40;65.60;;;;;;5058081;28;20045;-44
2022/01/15 07:26:58;;;;;;;17.45;2.22;;;3.40;65.40;;;;;;5057557;28;20036;-43
2022/01/15 07:29:24;;;;;;;8.13;1.90;;;3.40;65.40;;;;;;5057909;28;20031;-44
2022/01/15 07:31:52;;;;;;;10.23;2.05;;;3.40;65.20;;;;;;5058089;28;20100;-34
2022/01/15 07:34:18;;;;;;;5.63;2.10;;;3.50;65.10;;;;;;5057957;28;20021;-44
2022/01/15 07:36:51;;;;;;;4.95;1.92;;;3.50;64.80;;;;;;5057988;28;20078;-44
2022/01/15 07:39:16;;;;;;;7.70;2.20;;;3.50;64.70;;;;;;5057886;28;20040;-44
2022/01/15 07:41:42;;;;;;;10.20;3.33;;;3.50;64.60;;;;;;5057747;28;20033;-34
2022/01/15 07:44:09;;;;;;;12.95;3.03;;;3.50;65.30;;;;;;5057650;28;20028;-45
2022/01/15 07:46:35;;;;;;;6.30;2.13;;;3.60;64.60;;;;;;5056860;28;20421;-34
2022/01/15 07:49:01;;;;;;;9.30;3.67;;;3.60;64.40;;;;;;5057614;28;20048;-45
2022/01/15 07:51:27;;;;;;;9.95;2.25;;;3.60;64.30;;;;;;5057391;28;20036;-45
2022/01/15 07:53:53;;;;;;;3.72;2.08;;;3.70;64.30;;;;;;5057540;28;20037;-33
2022/01/15 07:56:18;;;;;;;8.25;2.17;;;3.70;63.90;;;;;;5057436;28;20025;-45
2022/01/15 07:58:44;;;;;;;4.68;2.05;;;3.70;63.80;;;;;;5057259;28;20111;-36
2022/01/15 08:01:09;;;;;;;6.57;2.28;;;3.80;62.90;;;;;;5056773;28;20056;-34
2022/01/15 08:03:35;;;;;;;5.85;2.05;;;3.80;62.80;;;;;;5057295;28;20382;-35
2022/01/15 08:06:01;;;;;;;5.18;1.92;;;3.90;62.60;;;;;;5056906;28;20029;-45
2022/01/15 08:08:26;;;;;;;6.40;2.30;;;3.90;62.10;;;;;;5057231;28;20103;-34
2022/01/15 08:10:52;;;;;;;4.95;2.80;;;3.90;62.30;;;;;;5057279;28;20029;-45
2022/01/15 08:13:19;;;;;;;5.47;2.47;;;3.90;61.90;;;;;;5057174;28;20083;-36
2022/01/15 08:15:44;;;;;;;3.63;1.60;;;4.00;61.50;;;;;;5056635;28;20104;-34
2022/01/15 08:18:10;;;;;;;6.55;2.17;;;4.00;61.30;;;;;;5054792;28;20032;-34
2022/01/15 08:20:36;;;;;;;3.28;1.83;;;4.00;61.50;;;;;;5056637;28;20333;-34
2022/01/15 08:23:02;;;;;;;6.75;2.10;;;4.10;61.40;;;;;;5057288;28;20424;-45
2022/01/15 08:25:28;;;;;;;7.00;2.13;;;4.10;60.90;;;;;;5047683;28;20276;-34
2022/01/15 08:27:54;;;;;;;5.30;2.28;;;4.20;61.00;;;;;;5054912;28;20030;-34
2022/01/15 08:30:20;;;;;;;9.35;2.30;;;4.20;60.80;;;;;;5057140;28;20108;-49
2022/01/15 08:32:47;;;;;;;5.00;1.77;;;4.20;60.60;;;;;;5056966;28;20122;-33
2022/01/15 08:35:13;;;;;;;6.50;2.00;;;4.30;60.20;;;;;;5055417;28;20108;-45
2022/01/15 08:37:39;;;;;;;6.55;3.28;;;4.30;60.40;;;;;;5056974;28;20037;-34
2022/01/15 08:40:06;;;;;;;6.60;2.85;;;4.30;59.90;;;;;;5056642;28;20082;-45
2022/01/15 08:42:32;;;;;;;4.97;2.58;;;4.40;59.90;;;;;;5056757;28;20102;-35
2022/01/15 08:44:57;;;;;;;5.20;2.30;;;4.40;59.60;;;;;;5056546;28;20033;-38
2022/01/15 08:47:23;;;;;;;5.65;1.83;;;4.40;59.20;;;;;;5056421;28;20115;-34
2022/01/15 08:49:49;;;;;;;3.17;1.60;;;4.40;58.60;;;;;;5056035;28;20045;-33
2022/01/15 08:52:15;;;;;;;7.22;2.05;;;4.40;58.30;;;;;;5056260;28;20306;-47
2022/01/15 08:54:40;;;;;;;3.38;1.85;;;4.50;58.50;;;;;;5056223;28;20036;-34
2022/01/15 08:57:06;;;;;;;5.90;2.25;;;4.50;58.10;;;;;;5055482;28;20025;-45
2022/01/15 08:59:32;;;;;;;3.55;1.67;;;4.50;58.10;;;;;;5056367;28;20033;-34
2022/01/15 09:01:59;;;;;;;4.93;1.92;;;4.60;58.30;;;;;;5056415;28;20112;-35
2022/01/15 09:04:25;;;;;;;5.07;1.80;;;4.60;58.40;;;;;;5056100;28;20090;-46
2022/01/15 09:06:51;;;;;;;6.50;2.22;;;4.60;58.00;;;;;;5056212;28;20021;-34
2022/01/15 09:09:17;;;;;;;5.38;2.60;;;4.60;58.00;;;;;;5055968;28;20025;-45
2022/01/15 09:11:43;;;;;;;6.25;1.98;;;4.70;58.10;;;;;;5055937;28;20043;-33
2022/01/15 09:14:10;;;;;;;9.10;2.13;;;4.70;58.00;;;;;;5055935;28;20094;-45
2022/01/15 09:16:36;;;;;;;5.78;2.35;;;4.70;58.10;;;;;;5056154;28;20036;-45
2022/01/15 09:19:03;;;;;;;5.32;2.63;;;4.70;58.10;;;;;;5056083;28;20087;-34
2022/01/15 09:21:28;;;;;;;10.60;3.00;;;4.70;57.70;;;;;;5055445;28;20032;-46
2022/01/15 09:23:54;;;;;;;10.65;3.28;;;4.70;58.10;;;;;;5056026;28;20021;-34
2022/01/15 09:26:23;;;;;;;5.93;2.35;;;4.70;57.80;;;;;;5055660;28;20384;-34
2022/01/15 09:31:36;;;;;;;3.95;1.90;;;4.70;57.90;;;;;;5055661;28;20483;-37
2022/01/15 09:34:02;;;;;;;4.82;2.05;;;4.70;58.30;;;;;;5055637;28;20031;-33
2022/01/15 09:36:28;;;;;;;5.22;1.90;;;4.70;58.60;;;;;;5050518;28;20026;-45
2022/01/15 09:38:54;;;;;;;6.25;2.03;;;4.70;58.80;;;;;;5035852;28;20034;-45
2022/01/15 09:41:20;;;;;;;2.80;1.58;;;4.70;58.90;;;;;;5035180;28;20174;-45
2022/01/15 09:43:47;;;;;;;7.70;2.33;;;4.70;59.20;;;;;;5035934;28;20082;-33
2022/01/15 09:46:13;;;;;;;5.05;2.00;;;4.70;59.30;;;;;;5035207;28;20060;-34
2022/01/15 09:48:42;;;;;;;10.60;2.53;;;4.70;59.50;;;;;;5035459;28;20084;-45
2022/01/15 09:51:08;;;;;;;5.07;2.25;;;4.70;59.60;;;;;;5035129;28;20034;-36
2022/01/15 09:53:34;;;;;;;6.50;2.55;;;4.70;59.60;;;;;;5035181;28;20031;-33
2022/01/15 09:56:00;;;;;;;7.00;3.25;;;4.70;59.40;;;;;;5035038;28;20167;-45
2022/01/15 09:58:26;;;;;;;5.70;2.97;;;4.70;59.60;;;;;;5035281;28;20040;-45
2022/01/15 10:00:52;;;;;;;5.13;2.20;;;4.70;59.70;;;;;;5035046;28;20042;-45
2022/01/15 10:03:19;;;;;;;6.93;2.50;;;4.70;59.40;;;;;;5035139;28;20029;-34
2022/01/15 10:05:46;;;;;;;7.22;2.17;;;4.70;59.30;;;;;;5035275;28;20087;-45
2022/01/15 10:08:13;;;;;;;4.97;1.73;;;4.70;58.30;;;;;;5035851;28;20053;-45
2022/01/15 10:10:46;;;;;;;10.80;3.80;;;4.70;58.10;;;;;;5039476;28;20034;-35
2022/01/15 10:13:15;;;;;;;5.50;2.20;;;4.70;58.10;;;;;;5039028;28;20079;-34
2022/01/15 10:15:46;;;;;;;10.07;2.25;;;4.70;58.70;;;;;;5039351;28;20033;-45
2022/01/15 10:18:48;;;;;;;6.10;1.95;;;4.80;58.60;;;;;;5039451;28;20369;-45
2022/01/15 10:21:19;;;;;;;10.25;3.03;;;4.80;58.40;;;;;;5036700;28;20037;-33
2022/01/15 10:23:48;;;;;;;7.43;3.33;;;4.80;58.60;;;;;;5038828;28;20037;-45
2022/01/15 10:26:22;;;;;;;10.07;2.55;;;4.80;58.80;;;;;;5039005;28;20425;-45
2022/01/15 10:28:52;;;;;;;9.23;3.10;;;4.80;58.90;;;;;;5039624;28;20029;-45
2022/01/15 10:31:23;;;;;;;8.13;2.88;;;4.80;59.30;;;;;;5038992;28;20430;-34
2022/01/15 10:33:49;;;;;;;6.70;2.92;;;4.90;59.40;;;;;;5039403;28;20108;-46
2022/01/15 10:36:19;;;;;;;15.77;3.42;;;4.90;59.40;;;;;;5038763;28;20116;-33
2022/01/15 10:38:45;;;;;;;7.85;2.35;;;4.90;59.70;;;;;;5039617;28;20112;-33
2022/01/15 10:41:31;;;;;;;13.32;2.80;;;4.80;59.80;;;;;;5038718;28;20112;-38
2022/01/15 10:43:56;;;;;;;3.33;1.83;;;4.90;60.30;;;;;;5039365;28;20212;-44
2022/01/15 10:46:33;;;;;;;5.95;2.67;;;4.90;60.30;;;;;;5038754;28;20061;-34
2022/01/15 10:49:23;;;;;;;4.22;2.50;;;4.90;60.20;;;;;;5038787;28;20068;-45
2022/01/15 10:52:10;;;;;;;9.38;3.05;;;4.90;60.20;;;;;;5039062;28;20030;-34
2022/01/15 10:54:58;;;;;;;8.32;2.85;;;4.90;60.60;;;;;;5038773;28;20334;-45
2022/01/15 10:57:39;;;;;;;7.07;3.85;;;4.80;60.80;;;;;;5038894;28;20120;-45
2022/01/15 11:00:20;;;;;;;6.65;2.42;;;4.90;61.30;;;;;;5038741;28;20036;-45
2022/01/15 11:02:47;;;;;;;;;;;4.90;61.20;;;;;;5038840;28;20030;-35
2022/01/15 11:05:28;;;;;;;6.47;2.20;;;4.90;61.20;;;;;;5038357;28;19916;-35
2022/01/15 11:08:06;;;;;;;5.63;2.20;;;4.80;61.40;;;;;;5038540;28;20036;-45
2022/01/15 11:10:50;;;;;;;6.50;2.40;;;4.80;61.70;;;;;;5038133;28;20045;-45
2022/01/15 11:13:18;;;;;;;13.48;2.75;;;4.70;62.00;;;;;;5038295;28;20049;-36
2022/01/15 11:15:47;;;;;;;6.68;2.35;;;4.70;62.10;;;;;;5037943;28;20037;-45
2022/01/15 11:18:19;;;;;;;13.70;2.90;;;4.70;62.30;;;;;;5038141;28;20033;-45
2022/01/15 11:20:48;;;;;;;6.22;2.72;;;4.60;62.60;;;;;;5037468;28;20192;-33
2022/01/15 11:23:14;;;;;;;4.82;2.20;;;4.60;62.70;;;;;;5038326;28;20104;-45
2022/01/15 11:25:43;;;;;;;7.07;2.30;;;4.60;63.10;;;;;;5037919;28;20362;-35
2022/01/15 11:28:09;;;;;;;6.65;2.25;;;4.50;63.10;;;;;;5038296;28;20026;-35
2022/01/15 11:30:35;;;;;;;5.00;2.42;;;4.50;63.60;;;;;;5038046;28;20044;-33
2022/01/15 11:33:02;;;;;;;6.38;2.80;;;4.50;63.80;;;;;;5038095;28;20045;-45
2022/01/15 11:35:40;;;;;;;10.85;2.80;;;4.50;63.90;;;;;;5038116;28;20029;-45
2022/01/15 11:38:06;;;;;;;5.03;2.70;;;4.50;63.90;;;;;;5037849;28;20120;-45
2022/01/15 11:40:34;;;;;;;6.60;2.08;;;4.50;63.70;;;;;;5037432;28;20045;-45
2022/01/15 11:43:24;;;;;;;10.85;2.55;;;4.60;63.30;;;;;;5038146;28;20029;-33
2022/01/15 11:45:54;;;;;;;5.78;2.67;;;4.60;63.40;;;;;;5037691;28;20034;-33
2022/01/15 11:48:23;;;;;;;5.95;2.10;;;4.60;63.30;;;;;;5037740;28;20034;-45
2022/01/15 11:51:14;;;;;;;5.72;2.50;;;4.60;63.30;;;;;;5037783;28;20037;-45
2022/01/15 11:53:54;;;;;;;8.30;2.60;;;4.60;63.20;;;;;;5037577;28;20418;-45
2022/01/15 11:56:22;;;;;;;5.63;2.30;;;4.60;63.20;;;;;;5037664;28;20037;-45
2022/01/15 11:58:48;;;;;;;7.25;2.75;;;4.60;63.10;;;;;;5037765;28;20033;-45
2022/01/15 12:01:46;;;;;;;5.35;2.35;;;4.60;63.00;;;;;;5037378;28;20123;-34
2022/01/15 12:04:28;;;;;;;6.72;3.40;;;4.60;62.90;;;;;;5036089;28;20095;-46
2022/01/15 12:07:04;;;;;;;5.43;2.78;;;4.60;63.00;;;;;;5037240;28;20084;-38
2022/01/15 12:09:41;;;;;;;3.60;1.88;;;4.60;63.10;;;;;;5037163;28;20178;-34
2022/01/15 12:12:20;;;;;;;4.60;2.28;;;4.70;62.90;;;;;;5037714;28;20041;-45
2022/01/15 12:14:57;;;;;;;5.45;1.80;;;4.70;63.00;;;;;;5037117;28;20033;-34
2022/01/15 12:17:39;;;;;;;8.07;2.50;;;4.70;63.00;;;;;;5037284;28;20101;-45
2022/01/15 12:20:08;;;;;;;4.40;2.42;;;4.70;63.00;;;;;;5037185;28;20040;-35
2022/01/15 12:22:45;;;;;;;8.48;2.78;;;4.70;63.10;;;;;;5037513;28;20418;-46
2022/01/15 12:25:16;;;;;;;6.57;2.97;;;4.70;62.90;;;;;;5037291;28;20038;-45
2022/01/15 12:27:56;;;;;;;8.07;3.03;;;4.70;63.10;;;;;;5037205;28;20283;-34
2022/01/15 12:30:27;;;;;;;6.80;3.20;;;4.70;63.30;;;;;;5036823;28;20029;-34
2022/01/15 12:32:55;;;;;;;9.25;2.70;;;4.70;63.40;;;;;;5036049;28;20259;-34
2022/01/15 12:35:24;;;;;;;7.78;2.75;;;4.60;63.50;;;;;;5037024;28;20040;-34
2022/01/15 12:38:16;;;;;;;6.57;2.75;;;4.60;63.90;;;;;;5036715;28;20033;-46
2022/01/15 12:40:52;;;;;;;4.53;2.33;;;4.60;64.30;;;;;;5036515;28;20333;-34
2022/01/15 12:43:21;;;;;;;5.47;2.80;;;4.60;65.00;;;;;;5036921;28;20064;-39
2022/01/15 12:45:50;;;;;;;7.15;2.67;;;4.50;65.60;;;;;;5036306;28;20365;-34
2022/01/15 12:48:24;;;;;;;6.68;2.80;;;4.40;66.30;;;;;;5036666;28;20104;-33
2022/01/15 12:50:56;;;;;;;10.38;4.20;;;4.40;66.70;;;;;;5036544;28;20084;-36
2022/01/15 12:53:25;;;;;;;10.00;2.97;;;4.30;67.10;;;;;;5036922;28;20037;-34
2022/01/15 12:55:51;;;;;;;8.07;2.97;;;4.20;68.00;;;;;;5036317;28;20026;-33
2022/01/15 12:58:20;;;;;;;5.30;3.15;;;4.20;68.70;;;;;;5036437;28;20021;-45
2022/01/15 13:00:46;;;;;;;4.05;2.17;;;4.10;69.50;;;;;;5036303;28;20437;-45
2022/01/15 13:03:18;;;;;;;4.13;2.80;;;4.00;70.20;;;;;;5034844;28;20021;-47
2022/01/15 13:05:48;;;;;;;6.18;2.72;;;3.90;71.00;;;;;;5053244;28;20037;-45
2022/01/15 13:08:16;;;;;;;5.88;2.72;;;3.80;71.10;;;;;;5056575;28;20029;-41
2022/01/15 13:10:54;;;;;;;7.43;2.60;;;3.70;71.50;;;;;;5055746;28;20533;-34
2022/01/15 13:13:32;;;;;;;6.65;3.05;;;3.70;71.80;;;;;;5056140;28;20025;-34
2022/01/15 13:16:14;;;;;;;8.70;3.50;;;3.60;72.00;;;;;;5055792;28;20128;-34
2022/01/15 13:18:53;;;;;;;11.25;3.33;;;3.50;72.30;;;;;;5056078;28;20096;-45
2022/01/15 13:21:26;;;;;;;9.70;2.42;;;3.50;72.60;;;;;;5055912;28;20053;-39
2022/01/15 13:23:58;;;;;;;5.00;2.60;;;3.50;72.80;;;;;;5055947;28;20036;-46
2022/01/15 13:26:26;;;;;;;6.22;2.42;;;3.50;72.80;;;;;;5055234;28;20125;-45
2022/01/15 13:28:58;;;;;;;5.68;2.50;;;3.50;72.90;;;;;;5055831;28;20060;-34
2022/01/15 13:31:28;;;;;;;5.75;2.40;;;3.50;73.10;;;;;;5055451;28;20484;-46
2022/01/15 13:33:54;;;;;;;8.07;3.22;;;3.50;73.10;;;;;;5055580;28;20330;-34